sensor_id;sensor_type;location;lat;lon;timestamp;pressure;altitude;pressure_sealevel;temperature;humidity
37848;BME280;23688;33.130;-117.188;2023-01-28T00:02:19;99544.31;;;17.01;58.05
37848;BME280;23688;33.130;-117.188;2023-01-28T00:04:46;99553.44;;;17.26;56.87
37848;BME280;23688;33.130;-117.188;2023-01-28T00:07:12;99550.56;;;17.09;57.74
37848;BME280;23688;33.130;-117.188;2023-01-28T00:09:38;99567.28;;;17.16;58.86
37848;BME280;23688;33.130;-117.188;2023-01-28T00:12:05;99559.69;;;16.79;59.98
37848;BME280;23688;33.130;-117.188;2023-01-28T00:14:32;99552.53;;;16.71;62.20
37848;BME280;23688;33.130;-117.188;2023-01-28T00:16:59;99531.75;;;16.81;59.47
37848;BME280;23688;33.130;-117.188;2023-01-28T00:19:26;99539.38;;;16.69;59.79
37848;BME280;23688;33.130;-117.188;2023-01-28T00:21:52;99547.31;;;16.72;60.56
37848;BME280;23688;33.130;-117.188;2023-01-28T00:24:19;99545.78;;;16.85;60.59
37848;BME280;23688;33.130;-117.188;2023-01-28T00:26:45;99548.56;;;16.94;61.93
37848;BME280;23688;33.130;-117.188;2023-01-28T00:29:12;99544.28;;;16.99;58.78
37848;BME280;23688;33.130;-117.188;2023-01-28T00:31:38;99527.72;;;17.00;57.63
37848;BME280;23688;33.130;-117.188;2023-01-28T00:34:06;99528.06;;;16.72;58.40
37848;BME280;23688;33.130;-117.188;2023-01-28T00:36:32;99538.06;;;16.44;61.76
37848;BME280;23688;33.130;-117.188;2023-01-28T00:38:58;99541.41;;;16.35;62.56
37848;BME280;23688;33.130;-117.188;2023-01-28T00:41:28;99552.31;;;16.13;63.76
37848;BME280;23688;33.130;-117.188;2023-01-28T00:43:55;99539.56;;;15.86;64.73
37848;BME280;23688;33.130;-117.188;2023-01-28T00:46:21;99551.69;;;15.80;61.49
37848;BME280;23688;33.130;-117.188;2023-01-28T00:48:49;99541.78;;;15.69;62.98
37848;BME280;23688;33.130;-117.188;2023-01-28T00:51:17;99548.66;;;15.24;66.65
37848;BME280;23688;33.130;-117.188;2023-01-28T00:53:46;99546.41;;;15.03;68.08
37848;BME280;23688;33.130;-117.188;2023-01-28T00:56:14;99549.25;;;15.12;67.73
37848;BME280;23688;33.130;-117.188;2023-01-28T00:58:40;99548.38;;;15.13;67.57
37848;BME280;23688;33.130;-117.188;2023-01-28T01:01:19;99555.81;;;14.96;69.34
37848;BME280;23688;33.130;-117.188;2023-01-28T01:03:46;99550.84;;;14.72;73.96
37848;BME280;23688;33.130;-117.188;2023-01-28T01:06:14;99553.28;;;14.65;75.38
37848;BME280;23688;33.130;-117.188;2023-01-28T01:08:41;99555.34;;;14.45;70.81
37848;BME280;23688;33.130;-117.188;2023-01-28T01:11:14;99558.50;;;14.33;66.78
37848;BME280;23688;33.130;-117.188;2023-01-28T01:13:41;99547.72;;;14.21;63.78
37848;BME280;23688;33.130;-117.188;2023-01-28T01:16:12;99558.56;;;14.36;61.46
37848;BME280;23688;33.130;-117.188;2023-01-28T01:18:39;99544.94;;;14.46;60.08
37848;BME280;23688;33.130;-117.188;2023-01-28T01:21:08;99544.94;;;14.46;58.79
37848;BME280;23688;33.130;-117.188;2023-01-28T01:23:35;99545.09;;;14.52;57.75
37848;BME280;23688;33.130;-117.188;2023-01-28T01:26:03;99548.78;;;14.59;57.28
37848;BME280;23688;33.130;-117.188;2023-01-28T01:28:29;99544.56;;;14.64;61.84
37848;BME280;23688;33.130;-117.188;2023-01-28T01:31:03;99541.75;;;14.57;64.88
37848;BME280;23688;33.130;-117.188;2023-01-28T01:33:30;99540.72;;;14.51;67.24
37848;BME280;23688;33.130;-117.188;2023-01-28T01:35:57;99543.94;;;14.41;68.06
37848;BME280;23688;33.130;-117.188;2023-01-28T01:38:25;99553.25;;;14.31;68.31
37848;BME280;23688;33.130;-117.188;2023-01-28T01:40:54;99545.16;;;14.22;68.67
37848;BME280;23688;33.130;-117.188;2023-01-28T01:43:23;99561.63;;;14.20;68.46
37848;BME280;23688;33.130;-117.188;2023-01-28T01:45:54;99561.50;;;14.15;68.06
37848;BME280;23688;33.130;-117.188;2023-01-28T01:48:32;99542.81;;;14.01;66.89
37848;BME280;23688;33.130;-117.188;2023-01-28T01:51:08;99568.66;;;13.92;65.02
37848;BME280;23688;33.130;-117.188;2023-01-28T01:53:44;99561.03;;;13.68;61.47
37848;BME280;23688;33.130;-117.188;2023-01-28T01:56:15;99565.66;;;13.49;58.80
37848;BME280;23688;33.130;-117.188;2023-01-28T01:58:44;99564.25;;;13.32;57.12
37848;BME280;23688;33.130;-117.188;2023-01-28T02:01:12;99572.63;;;13.23;55.90
37848;BME280;23688;33.130;-117.188;2023-01-28T02:06:25;99550.03;;;12.95;55.35
37848;BME280;23688;33.130;-117.188;2023-01-28T02:08:52;99565.66;;;12.95;55.81
37848;BME280;23688;33.130;-117.188;2023-01-28T02:11:21;99554.63;;;12.77;55.64
37848;BME280;23688;33.130;-117.188;2023-01-28T02:13:52;99542.59;;;12.55;53.82
37848;BME280;23688;33.130;-117.188;2023-01-28T02:16:20;99541.56;;;12.50;52.72
37848;BME280;23688;33.130;-117.188;2023-01-28T02:18:46;99559.09;;;12.55;55.30
37848;BME280;23688;33.130;-117.188;2023-01-28T02:22:00;99543.81;;;12.40;54.97
37848;BME280;23688;33.130;-117.188;2023-01-28T02:30:17;99557.16;;;12.24;55.17
37848;BME280;23688;33.130;-117.188;2023-01-28T02:32:53;99548.63;;;12.04;55.09
37848;BME280;23688;33.130;-117.188;2023-01-28T02:35:40;99564.03;;;11.98;54.60
37848;BME280;23688;33.130;-117.188;2023-01-28T02:38:17;99555.09;;;11.91;54.07
37848;BME280;23688;33.130;-117.188;2023-01-28T02:40:49;99544.19;;;11.79;54.11
37848;BME280;23688;33.130;-117.188;2023-01-28T02:43:43;99561.88;;;11.65;52.85
37848;BME280;23688;33.130;-117.188;2023-01-28T02:49:38;99554.69;;;11.35;52.62
37848;BME280;23688;33.130;-117.188;2023-01-28T02:52:13;99547.16;;;11.21;52.97
37848;BME280;23688;33.130;-117.188;2023-01-28T02:54:57;99550.59;;;11.20;53.47
37848;BME280;23688;33.130;-117.188;2023-01-28T03:03:45;99564.00;;;10.87;52.50
37848;BME280;23688;33.130;-117.188;2023-01-28T03:06:19;99561.94;;;10.78;52.59
37848;BME280;23688;33.130;-117.188;2023-01-28T03:08:49;99543.94;;;10.62;52.50
37848;BME280;23688;33.130;-117.188;2023-01-28T03:11:39;99557.75;;;10.61;52.06
37848;BME280;23688;33.130;-117.188;2023-01-28T03:14:26;99566.34;;;10.60;51.76
37848;BME280;23688;33.130;-117.188;2023-01-28T03:20:08;99554.03;;;10.56;51.47
37848;BME280;23688;33.130;-117.188;2023-01-28T03:22:56;99553.16;;;10.55;51.85
37848;BME280;23688;33.130;-117.188;2023-01-28T03:25:47;99552.34;;;10.56;52.53
37848;BME280;23688;33.130;-117.188;2023-01-28T03:28:34;99555.88;;;10.58;52.54
37848;BME280;23688;33.130;-117.188;2023-01-28T03:31:21;99550.44;;;10.52;51.81
37848;BME280;23688;33.130;-117.188;2023-01-28T03:34:08;99545.13;;;10.49;51.48
37848;BME280;23688;33.130;-117.188;2023-01-28T03:36:54;99541.94;;;10.35;49.92
37848;BME280;23688;33.130;-117.188;2023-01-28T03:39:27;99541.09;;;10.36;50.05
37848;BME280;23688;33.130;-117.188;2023-01-28T03:42:05;99557.72;;;10.40;51.27
37848;BME280;23688;33.130;-117.188;2023-01-28T03:44:32;99537.31;;;10.28;52.31
37848;BME280;23688;33.130;-117.188;2023-01-28T03:47:15;99544.84;;;10.23;51.02
37848;BME280;23688;33.130;-117.188;2023-01-28T03:49:45;99534.81;;;10.12;50.02
37848;BME280;23688;33.130;-117.188;2023-01-28T03:52:15;99532.84;;;10.06;49.98
37848;BME280;23688;33.130;-117.188;2023-01-28T03:54:44;99535.78;;;9.94;50.08
37848;BME280;23688;33.130;-117.188;2023-01-28T03:57:18;99523.16;;;9.82;49.98
37848;BME280;23688;33.130;-117.188;2023-01-28T03:59:45;99541.38;;;9.84;49.46
37848;BME280;23688;33.130;-117.188;2023-01-28T04:02:16;99526.28;;;9.75;49.69
37848;BME280;23688;33.130;-117.188;2023-01-28T04:04:43;99534.38;;;9.81;50.31
37848;BME280;23688;33.130;-117.188;2023-01-28T04:07:10;99520.03;;;9.70;50.89
37848;BME280;23688;33.130;-117.188;2023-01-28T04:09:39;99526.91;;;9.70;51.94
37848;BME280;23688;33.130;-117.188;2023-01-28T04:12:05;99535.22;;;9.62;51.19
37848;BME280;23688;33.130;-117.188;2023-01-28T04:14:32;99529.56;;;9.52;49.86
37848;BME280;23688;33.130;-117.188;2023-01-28T04:16:58;99534.44;;;9.46;50.06
37848;BME280;23688;33.130;-117.188;2023-01-28T04:19:25;99522.72;;;9.34;50.29
37848;BME280;23688;33.130;-117.188;2023-01-28T04:21:52;99523.09;;;9.24;50.47
37848;BME280;23688;33.130;-117.188;2023-01-28T04:24:21;99527.16;;;9.19;50.90
37848;BME280;23688;33.130;-117.188;2023-01-28T04:26:48;99521.94;;;9.17;51.93
37848;BME280;23688;33.130;-117.188;2023-01-28T04:29:15;99531.59;;;9.21;55.28
37848;BME280;23688;33.130;-117.188;2023-01-28T04:31:41;99521.09;;;9.18;58.54
37848;BME280;23688;33.130;-117.188;2023-01-28T04:34:07;99535.91;;;9.21;59.48
37848;BME280;23688;33.130;-117.188;2023-01-28T04:36:34;99533.44;;;9.24;63.59
37848;BME280;23688;33.130;-117.188;2023-01-28T04:39:01;99523.38;;;9.30;71.70
37848;BME280;23688;33.130;-117.188;2023-01-28T04:41:27;99531.72;;;9.42;74.07
37848;BME280;23688;33.130;-117.188;2023-01-28T04:43:54;99530.03;;;9.43;74.73
37848;BME280;23688;33.130;-117.188;2023-01-28T04:46:20;99527.22;;;9.38;73.17
37848;BME280;23688;33.130;-117.188;2023-01-28T04:48:47;99525.16;;;9.31;72.44
37848;BME280;23688;33.130;-117.188;2023-01-28T04:51:13;99520.44;;;9.23;70.27
37848;BME280;23688;33.130;-117.188;2023-01-28T04:53:39;99510.53;;;9.14;69.93
37848;BME280;23688;33.130;-117.188;2023-01-28T04:56:07;99525.41;;;9.18;73.06
37848;BME280;23688;33.130;-117.188;2023-01-28T04:58:33;99526.94;;;9.14;73.37
37848;BME280;23688;33.130;-117.188;2023-01-28T05:01:00;99526.75;;;9.10;70.31
37848;BME280;23688;33.130;-117.188;2023-01-28T05:03:26;99523.41;;;9.12;71.28
37848;BME280;23688;33.130;-117.188;2023-01-28T05:05:52;99512.84;;;9.08;70.25
37848;BME280;23688;33.130;-117.188;2023-01-28T05:08:19;99522.50;;;9.12;69.61
37848;BME280;23688;33.130;-117.188;2023-01-28T05:10:45;99523.69;;;9.18;69.85
37848;BME280;23688;33.130;-117.188;2023-01-28T05:13:11;99528.13;;;9.21;69.29
37848;BME280;23688;33.130;-117.188;2023-01-28T05:15:38;99528.88;;;9.18;66.42
37848;BME280;23688;33.130;-117.188;2023-01-28T05:18:04;99507.13;;;8.97;63.11
37848;BME280;23688;33.130;-117.188;2023-01-28T05:20:31;99521.19;;;9.02;64.64
37848;BME280;23688;33.130;-117.188;2023-01-28T05:22:57;99525.22;;;8.95;64.57
37848;BME280;23688;33.130;-117.188;2023-01-28T05:25:25;99517.88;;;8.87;62.25
37848;BME280;23688;33.130;-117.188;2023-01-28T05:27:52;99497.97;;;8.68;61.58
37848;BME280;23688;33.130;-117.188;2023-01-28T05:30:19;99504.97;;;8.70;61.16
37848;BME280;23688;33.130;-117.188;2023-01-28T05:32:45;99510.66;;;8.63;62.07
37848;BME280;23688;33.130;-117.188;2023-01-28T05:35:12;99512.47;;;8.64;62.76
37848;BME280;23688;33.130;-117.188;2023-01-28T05:37:38;99514.41;;;8.68;61.13
37848;BME280;23688;33.130;-117.188;2023-01-28T05:40:05;99503.88;;;8.65;64.48
37848;BME280;23688;33.130;-117.188;2023-01-28T05:42:31;99514.00;;;8.61;65.59
37848;BME280;23688;33.130;-117.188;2023-01-28T05:44:57;99510.06;;;8.51;65.55
37848;BME280;23688;33.130;-117.188;2023-01-28T05:47:25;99515.03;;;8.46;62.68
37848;BME280;23688;33.130;-117.188;2023-01-28T05:49:51;99514.38;;;8.50;61.43
37848;BME280;23688;33.130;-117.188;2023-01-28T05:52:18;99516.16;;;8.51;60.48
37848;BME280;23688;33.130;-117.188;2023-01-28T05:54:44;99506.53;;;8.49;61.71
37848;BME280;23688;33.130;-117.188;2023-01-28T05:57:10;99515.56;;;8.57;64.22
37848;BME280;23688;33.130;-117.188;2023-01-28T05:59:37;99511.13;;;8.54;64.50
37848;BME280;23688;33.130;-117.188;2023-01-28T06:02:03;99521.16;;;8.48;65.79
37848;BME280;23688;33.130;-117.188;2023-01-28T06:04:29;99509.63;;;8.42;67.15
37848;BME280;23688;33.130;-117.188;2023-01-28T06:06:55;99519.34;;;8.29;68.05
37848;BME280;23688;33.130;-117.188;2023-01-28T06:09:22;99517.75;;;8.15;67.39
37848;BME280;23688;33.130;-117.188;2023-01-28T06:11:48;99506.09;;;8.07;67.17
37848;BME280;23688;33.130;-117.188;2023-01-28T06:14:15;99522.03;;;8.14;69.50
37848;BME280;23688;33.130;-117.188;2023-01-28T06:16:42;99520.47;;;8.18;69.51
37848;BME280;23688;33.130;-117.188;2023-01-28T06:19:11;99525.75;;;8.20;70.93
37848;BME280;23688;33.130;-117.188;2023-01-28T06:21:37;99535.25;;;8.21;70.72
37848;BME280;23688;33.130;-117.188;2023-01-28T06:24:03;99524.75;;;8.18;71.44
37848;BME280;23688;33.130;-117.188;2023-01-28T06:26:29;99530.34;;;8.09;69.96
37848;BME280;23688;33.130;-117.188;2023-01-28T06:28:55;99531.75;;;8.02;68.29
37848;BME280;23688;33.130;-117.188;2023-01-28T06:31:22;99533.34;;;8.00;68.59
37848;BME280;23688;33.130;-117.188;2023-01-28T06:33:48;99548.38;;;7.91;67.91
37848;BME280;23688;33.130;-117.188;2023-01-28T06:36:14;99533.09;;;7.79;68.30
37848;BME280;23688;33.130;-117.188;2023-01-28T06:38:41;99554.84;;;7.83;68.80
37848;BME280;23688;33.130;-117.188;2023-01-28T06:41:07;99560.03;;;7.83;69.44
37848;BME280;23688;33.130;-117.188;2023-01-28T06:43:33;99560.97;;;7.85;70.70
37848;BME280;23688;33.130;-117.188;2023-01-28T06:46:00;99558.22;;;7.82;71.32
37848;BME280;23688;33.130;-117.188;2023-01-28T06:48:27;99555.81;;;7.68;70.89
37848;BME280;23688;33.130;-117.188;2023-01-28T06:50:55;99561.63;;;7.64;70.74
37848;BME280;23688;33.130;-117.188;2023-01-28T06:53:21;99557.53;;;7.53;71.01
37848;BME280;23688;33.130;-117.188;2023-01-28T06:55:48;99557.38;;;7.50;71.13
37848;BME280;23688;33.130;-117.188;2023-01-28T06:58:14;99555.75;;;7.36;73.11
37848;BME280;23688;33.130;-117.188;2023-01-28T07:00:41;99550.84;;;7.40;74.13
37848;BME280;23688;33.130;-117.188;2023-01-28T07:03:07;99540.59;;;7.42;73.29
37848;BME280;23688;33.130;-117.188;2023-01-28T07:05:33;99557.94;;;7.44;72.67
37848;BME280;23688;33.130;-117.188;2023-01-28T07:08:03;99569.78;;;7.41;72.87
37848;BME280;23688;33.130;-117.188;2023-01-28T07:10:30;99542.09;;;7.22;73.46
37848;BME280;23688;33.130;-117.188;2023-01-28T07:12:56;99555.63;;;7.18;74.15
37848;BME280;23688;33.130;-117.188;2023-01-28T07:15:22;99562.03;;;7.24;73.44
37848;BME280;23688;33.130;-117.188;2023-01-28T07:17:49;99553.59;;;7.12;73.14
37848;BME280;23688;33.130;-117.188;2023-01-28T07:20:17;99561.97;;;7.08;72.88
37848;BME280;23688;33.130;-117.188;2023-01-28T07:22:44;99541.25;;;6.92;74.24
37848;BME280;23688;33.130;-117.188;2023-01-28T07:25:12;99563.94;;;6.97;74.57
37848;BME280;23688;33.130;-117.188;2023-01-28T07:27:44;99552.00;;;6.99;74.71
37848;BME280;23688;33.130;-117.188;2023-01-28T07:30:11;99564.91;;;6.99;74.60
37848;BME280;23688;33.130;-117.188;2023-01-28T07:32:37;99564.66;;;6.95;74.27
37848;BME280;23688;33.130;-117.188;2023-01-28T07:35:03;99559.16;;;6.89;73.71
37848;BME280;23688;33.130;-117.188;2023-01-28T07:37:30;99561.56;;;6.85;74.02
37848;BME280;23688;33.130;-117.188;2023-01-28T07:39:56;99550.00;;;6.79;73.06
37848;BME280;23688;33.130;-117.188;2023-01-28T07:42:23;99561.31;;;6.81;72.93
37848;BME280;23688;33.130;-117.188;2023-01-28T07:44:49;99568.06;;;6.79;73.15
37848;BME280;23688;33.130;-117.188;2023-01-28T07:47:15;99563.69;;;6.78;72.56
37848;BME280;23688;33.130;-117.188;2023-01-28T07:49:42;99562.19;;;6.81;73.53
37848;BME280;23688;33.130;-117.188;2023-01-28T07:52:08;99559.50;;;6.80;73.02
37848;BME280;23688;33.130;-117.188;2023-01-28T07:54:34;99561.84;;;6.90;74.31
37848;BME280;23688;33.130;-117.188;2023-01-28T07:57:02;99561.63;;;6.87;73.87
37848;BME280;23688;33.130;-117.188;2023-01-28T07:59:35;99556.75;;;6.92;74.60
37848;BME280;23688;33.130;-117.188;2023-01-28T08:02:01;99541.72;;;6.84;74.70
37848;BME280;23688;33.130;-117.188;2023-01-28T08:04:27;99551.41;;;6.89;74.63
37848;BME280;23688;33.130;-117.188;2023-01-28T08:06:53;99531.84;;;6.77;74.19
37848;BME280;23688;33.130;-117.188;2023-01-28T08:09:21;99524.28;;;6.80;74.61
37848;BME280;23688;33.130;-117.188;2023-01-28T08:11:47;99507.00;;;6.79;75.04
37848;BME280;23688;33.130;-117.188;2023-01-28T08:14:14;99522.03;;;6.86;75.42
37848;BME280;23688;33.130;-117.188;2023-01-28T08:16:40;99528.19;;;6.89;75.61
37848;BME280;23688;33.130;-117.188;2023-01-28T08:19:07;99526.38;;;6.88;75.52
37848;BME280;23688;33.130;-117.188;2023-01-28T08:21:33;99519.88;;;6.94;76.42
37848;BME280;23688;33.130;-117.188;2023-01-28T08:23:59;99517.16;;;6.91;78.53
37848;BME280;23688;33.130;-117.188;2023-01-28T08:26:26;99522.31;;;6.91;78.87
37848;BME280;23688;33.130;-117.188;2023-01-28T08:28:52;99516.88;;;6.86;78.33
37848;BME280;23688;33.130;-117.188;2023-01-28T08:31:18;99512.81;;;6.90;78.67
37848;BME280;23688;33.130;-117.188;2023-01-28T08:33:44;99511.25;;;6.94;79.24
37848;BME280;23688;33.130;-117.188;2023-01-28T08:36:11;99504.34;;;6.93;79.18
37848;BME280;23688;33.130;-117.188;2023-01-28T08:38:37;99498.19;;;6.91;79.18
37848;BME280;23688;33.130;-117.188;2023-01-28T08:41:03;99491.06;;;6.86;79.60
37848;BME280;23688;33.130;-117.188;2023-01-28T08:43:30;99507.44;;;6.87;79.83
37848;BME280;23688;33.130;-117.188;2023-01-28T08:45:56;99517.75;;;6.87;78.65
37848;BME280;23688;33.130;-117.188;2023-01-28T08:48:23;99481.38;;;6.82;78.83
37848;BME280;23688;33.130;-117.188;2023-01-28T08:50:49;99494.25;;;6.97;78.30
37848;BME280;23688;33.130;-117.188;2023-01-28T08:53:18;99495.16;;;6.98;78.50
37848;BME280;23688;33.130;-117.188;2023-01-28T08:55:46;99498.72;;;7.00;78.40
37848;BME280;23688;33.130;-117.188;2023-01-28T08:58:16;99501.47;;;7.03;77.77
37848;BME280;23688;33.130;-117.188;2023-01-28T09:00:43;99497.53;;;7.10;77.39
37848;BME280;23688;33.130;-117.188;2023-01-28T09:03:10;99495.78;;;6.94;77.34
37848;BME280;23688;33.130;-117.188;2023-01-28T09:05:37;99503.16;;;7.02;77.54
37848;BME280;23688;33.130;-117.188;2023-01-28T09:08:06;99510.44;;;7.10;76.58
37848;BME280;23688;33.130;-117.188;2023-01-28T09:10:33;99500.72;;;7.05;76.29
37848;BME280;23688;33.130;-117.188;2023-01-28T09:13:04;99495.41;;;7.02;76.26
37848;BME280;23688;33.130;-117.188;2023-01-28T09:15:31;99490.78;;;6.97;75.85
37848;BME280;23688;33.130;-117.188;2023-01-28T09:17:58;99484.78;;;6.81;76.72
37848;BME280;23688;33.130;-117.188;2023-01-28T09:20:25;99493.81;;;6.90;76.02
37848;BME280;23688;33.130;-117.188;2023-01-28T09:22:51;99511.44;;;6.97;76.61
37848;BME280;23688;33.130;-117.188;2023-01-28T09:25:18;99501.28;;;7.00;75.90
37848;BME280;23688;33.130;-117.188;2023-01-28T09:27:44;99511.78;;;7.03;75.18
37848;BME280;23688;33.130;-117.188;2023-01-28T09:30:11;99496.03;;;6.98;75.29
37848;BME280;23688;33.130;-117.188;2023-01-28T09:32:38;99513.81;;;7.08;73.16
37848;BME280;23688;33.130;-117.188;2023-01-28T09:35:05;99495.56;;;7.05;72.10
37848;BME280;23688;33.130;-117.188;2023-01-28T09:37:31;99500.81;;;7.07;72.37
37848;BME280;23688;33.130;-117.188;2023-01-28T09:39:57;99486.69;;;7.00;72.78
37848;BME280;23688;33.130;-117.188;2023-01-28T09:45:31;99501.72;;;7.07;72.48
37848;BME280;23688;33.130;-117.188;2023-01-28T09:48:04;99495.72;;;7.08;72.44
37848;BME280;23688;33.130;-117.188;2023-01-28T09:50:34;99469.41;;;6.99;72.80
37848;BME280;23688;33.130;-117.188;2023-01-28T09:53:21;99474.97;;;7.07;73.57
37848;BME280;23688;33.130;-117.188;2023-01-28T09:55:54;99456.09;;;6.92;72.91
37848;BME280;23688;33.130;-117.188;2023-01-28T09:58:21;99488.13;;;6.95;73.58
37848;BME280;23688;33.130;-117.188;2023-01-28T10:04:16;99502.34;;;7.03;73.22
37848;BME280;23688;33.130;-117.188;2023-01-28T10:06:51;99480.44;;;6.97;73.36
37848;BME280;23688;33.130;-117.188;2023-01-28T10:09:31;99499.41;;;6.97;73.72
37848;BME280;23688;33.130;-117.188;2023-01-28T10:17:29;99492.78;;;6.86;75.27
37848;BME280;23688;33.130;-117.188;2023-01-28T10:20:24;99503.00;;;6.84;75.44
37848;BME280;23688;33.130;-117.188;2023-01-28T10:23:23;99476.22;;;6.82;75.79
37848;BME280;23688;33.130;-117.188;2023-01-28T10:25:52;99484.31;;;6.89;75.32
37848;BME280;23688;33.130;-117.188;2023-01-28T10:28:23;99488.84;;;6.93;74.53
37848;BME280;23688;33.130;-117.188;2023-01-28T10:30:50;99490.72;;;6.95;73.94
37848;BME280;23688;33.130;-117.188;2023-01-28T10:33:34;99497.53;;;6.95;73.80
37848;BME280;23688;33.130;-117.188;2023-01-28T10:36:02;99498.53;;;6.97;72.95
37848;BME280;23688;33.130;-117.188;2023-01-28T10:38:30;99490.78;;;6.97;72.62
37848;BME280;23688;33.130;-117.188;2023-01-28T10:41:03;99481.09;;;6.93;72.81
37848;BME280;23688;33.130;-117.188;2023-01-28T10:43:33;99466.81;;;6.83;73.94
37848;BME280;23688;33.130;-117.188;2023-01-28T10:46:20;99464.13;;;6.81;75.24
37848;BME280;23688;33.130;-117.188;2023-01-28T10:49:00;99488.84;;;6.93;76.25
37848;BME280;23688;33.130;-117.188;2023-01-28T10:51:32;99492.56;;;6.98;74.91
37848;BME280;23688;33.130;-117.188;2023-01-28T10:53:59;99495.06;;;6.96;73.51
37848;BME280;23688;33.130;-117.188;2023-01-28T10:56:33;99485.34;;;6.92;72.52
37848;BME280;23688;33.130;-117.188;2023-01-28T10:59:04;99485.47;;;6.94;72.12
37848;BME280;23688;33.130;-117.188;2023-01-28T11:01:52;99484.22;;;6.87;72.40
37848;BME280;23688;33.130;-117.188;2023-01-28T11:07:05;99462.09;;;6.76;72.75
37848;BME280;23688;33.130;-117.188;2023-01-28T11:09:34;99470.09;;;6.80;73.76
37848;BME280;23688;33.130;-117.188;2023-01-28T11:12:30;99470.34;;;6.85;73.55
37848;BME280;23688;33.130;-117.188;2023-01-28T11:15:03;99473.38;;;6.93;73.60
37848;BME280;23688;33.130;-117.188;2023-01-28T11:17:35;99458.91;;;6.96;72.42
37848;BME280;23688;33.130;-117.188;2023-01-28T11:20:20;99433.59;;;6.89;72.05
37848;BME280;23688;33.130;-117.188;2023-01-28T11:22:47;99468.78;;;7.03;70.90
37848;BME280;23688;33.130;-117.188;2023-01-28T11:25:25;99458.34;;;6.85;70.69
37848;BME280;23688;33.130;-117.188;2023-01-28T11:27:58;99468.38;;;6.96;71.00
37848;BME280;23688;33.130;-117.188;2023-01-28T11:30:30;99490.25;;;7.02;70.36
37848;BME280;23688;33.130;-117.188;2023-01-28T11:35:30;99497.03;;;7.00;69.84
37848;BME280;23688;33.130;-117.188;2023-01-28T11:37:57;99499.66;;;7.02;69.57
37848;BME280;23688;33.130;-117.188;2023-01-28T11:40:24;99493.63;;;7.01;69.00
37848;BME280;23688;33.130;-117.188;2023-01-28T11:42:52;99498.94;;;7.04;69.62
37848;BME280;23688;33.130;-117.188;2023-01-28T11:45:43;99497.34;;;7.06;72.09
37848;BME280;23688;33.130;-117.188;2023-01-28T11:48:29;99503.38;;;7.07;73.48
37848;BME280;23688;33.130;-117.188;2023-01-28T11:56:43;99509.22;;;7.19;74.47
37848;BME280;23688;33.130;-117.188;2023-01-28T11:59:35;99501.00;;;7.26;73.99
37848;BME280;23688;33.130;-117.188;2023-01-28T12:25:33;99454.69;;;7.13;74.12
37848;BME280;23688;33.130;-117.188;2023-01-28T12:31:03;99446.94;;;7.13;73.63
37848;BME280;23688;33.130;-117.188;2023-01-28T12:39:24;99445.50;;;7.18;74.20
37848;BME280;23688;33.130;-117.188;2023-01-28T12:42:06;99436.59;;;7.13;73.36
37848;BME280;23688;33.130;-117.188;2023-01-28T12:44:45;99452.97;;;7.14;73.51
37848;BME280;23688;33.130;-117.188;2023-01-28T12:47:27;99454.84;;;7.16;73.58
37848;BME280;23688;33.130;-117.188;2023-01-28T12:50:09;99459.22;;;7.17;73.92
37848;BME280;23688;33.130;-117.188;2023-01-28T12:52:49;99467.22;;;7.22;73.71
37848;BME280;23688;33.130;-117.188;2023-01-28T12:55:19;99479.56;;;7.27;73.16
37848;BME280;23688;33.130;-117.188;2023-01-28T12:57:47;99478.75;;;7.28;73.32
37848;BME280;23688;33.130;-117.188;2023-01-28T13:00:33;99490.78;;;7.28;73.23
37848;BME280;23688;33.130;-117.188;2023-01-28T13:05:48;99453.06;;;7.15;71.62
37848;BME280;23688;33.130;-117.188;2023-01-28T13:08:21;99469.22;;;7.27;69.90
37848;BME280;23688;33.130;-117.188;2023-01-28T13:10:48;99471.72;;;7.26;68.20
37848;BME280;23688;33.130;-117.188;2023-01-28T13:13:36;99475.94;;;7.40;66.68
37848;BME280;23688;33.130;-117.188;2023-01-28T13:16:04;99480.63;;;7.47;66.50
37848;BME280;23688;33.130;-117.188;2023-01-28T13:18:34;99468.09;;;7.55;66.67
37848;BME280;23688;33.130;-117.188;2023-01-28T13:26:52;99465.81;;;7.78;68.95
37848;BME280;23688;33.130;-117.188;2023-01-28T13:29:29;99460.50;;;7.75;69.71
37848;BME280;23688;33.130;-117.188;2023-01-28T13:31:59;99476.50;;;7.84;70.98
37848;BME280;23688;33.130;-117.188;2023-01-28T13:34:37;99468.00;;;7.86;70.01
37848;BME280;23688;33.130;-117.188;2023-01-28T13:39:49;99475.50;;;7.98;65.67
37848;BME280;23688;33.130;-117.188;2023-01-28T13:42:25;99476.47;;;8.00;64.18
37848;BME280;23688;33.130;-117.188;2023-01-28T13:44:55;99481.72;;;8.02;64.07
37848;BME280;23688;33.130;-117.188;2023-01-28T13:47:30;99497.31;;;8.03;64.72
37848;BME280;23688;33.130;-117.188;2023-01-28T13:50:22;99484.28;;;8.02;66.71
37848;BME280;23688;33.130;-117.188;2023-01-28T13:55:58;99493.59;;;8.14;67.68
37848;BME280;23688;33.130;-117.188;2023-01-28T13:58:32;99477.88;;;8.11;67.44
37848;BME280;23688;33.130;-117.188;2023-01-28T14:01:18;99491.38;;;8.22;67.96
37848;BME280;23688;33.130;-117.188;2023-01-28T14:17:34;99513.44;;;8.15;64.71
37848;BME280;23688;33.130;-117.188;2023-01-28T14:23:00;99506.44;;;7.80;64.61
37848;BME280;23688;33.130;-117.188;2023-01-28T14:28:05;99504.38;;;7.57;65.65
37848;BME280;23688;33.130;-117.188;2023-01-28T14:33:14;99524.78;;;7.52;66.09
37848;BME280;23688;33.130;-117.188;2023-01-28T14:35:45;99513.78;;;7.40;66.02
37848;BME280;23688;33.130;-117.188;2023-01-28T14:38:18;99522.50;;;7.42;67.44
37848;BME280;23688;33.130;-117.188;2023-01-28T14:40:52;99530.25;;;7.42;68.43
37848;BME280;23688;33.130;-117.188;2023-01-28T14:43:24;99528.56;;;7.42;70.57
37848;BME280;23688;33.130;-117.188;2023-01-28T14:46:17;99535.69;;;7.46;70.54
37848;BME280;23688;33.130;-117.188;2023-01-28T14:49:15;99544.31;;;7.47;68.84